Time;durP1;ratioP1;P1;durP2;ratioP2;P2;SDS_P1;SDS_P2;PMS_P1;PMS_P2;Temp;Humidity;BMP_temperature;BMP_pressure;BME280_temperature;BME280_humidity;BME280_pressure;Samples;Min_cycle;Max_cycle;Signal;HPM_P1;HPM_P2
2022/02/21 00:01:38;;;;;;;4.77;1.10;;;;;;;;;;4990597;28;20205;-85
2022/02/21 00:04:07;;;;;;;4.93;0.97;;;;;;;;;;4989388;28;20275;-85
2022/02/21 00:06:36;;;;;;;2.30;0.60;;;;;;;;;;4991091;28;20259;-85
2022/02/21 00:09:13;;;;;;;3.83;0.90;;;;;;;;;;4991040;28;20236;-86
2022/02/21 00:11:41;;;;;;;6.10;1.07;;;;;;;;;;4990259;28;20213;-85
2022/02/21 00:14:09;;;;;;;3.37;1.03;;;;;;;;;;4988210;28;20295;-86
2022/02/21 00:16:37;;;;;;;4.30;0.70;;;;;;;;;;4988515;28;20256;-86
2022/02/21 00:19:04;;;;;;;2.70;0.50;;;;;;;;;;4988096;28;20242;-86
2022/02/21 00:21:32;;;;;;;2.60;0.50;;;;;;;;;;4988673;28;20822;-86
2022/02/21 00:24:00;;;;;;;2.10;0.60;;;;;;;;;;4986118;28;20507;-84
2022/02/21 00:26:27;;;;;;;0.37;0.30;;;;;;;;;;4982564;28;20209;-85
2022/02/21 00:28:54;;;;;;;1.10;0.30;;;;;;;;;;4987756;28;20466;-86
2022/02/21 00:31:21;;;;;;;0.10;0.10;;;;;;;;;;4985277;28;20251;-85
2022/02/21 00:33:48;;;;;;;1.37;0.20;;;;;;;;;;4986561;28;20670;-85
2022/02/21 00:36:16;;;;;;;0.70;0.30;;;;;;;;;;4980772;28;20224;-85
2022/02/21 00:38:46;;;;;;;1.53;0.30;;;;;;;;;;4982339;28;20551;-86
2022/02/21 00:41:13;;;;;;;0.20;0.20;;;;;;;;;;4984743;28;20244;-85
2022/02/21 00:43:40;;;;;;;0.20;0.20;;;;;;;;;;4980430;28;20606;-84
2022/02/21 00:46:08;;;;;;;0.40;0.20;;;;;;;;;;4983963;28;20686;-84
2022/02/21 00:48:35;;;;;;;1.10;0.20;;;;;;;;;;4980735;28;20268;-84
2022/02/21 00:51:02;;;;;;;0.73;0.30;;;;;;;;;;4978171;28;20256;-84
2022/02/21 00:53:29;;;;;;;2.20;0.37;;;;;;;;;;4980720;28;20627;-84
2022/02/21 00:55:58;;;;;;;3.73;0.60;;;;;;;;;;4978634;28;20232;-84
2022/02/21 00:58:25;;;;;;;4.30;0.53;;;;;;;;;;4985193;28;20780;-85
2022/02/21 01:00:53;;;;;;;6.10;0.93;;;;;;;;;;4986264;28;20670;-85
2022/02/21 01:03:20;;;;;;;6.30;0.80;;;;;;;;;;4985782;28;20209;-85
2022/02/21 01:05:47;;;;;;;4.97;0.60;;;;;;;;;;4981127;28;20206;-85
2022/02/21 01:08:15;;;;;;;2.13;0.50;;;;;;;;;;4983239;28;20291;-85
2022/02/21 01:10:42;;;;;;;4.00;0.70;;;;;;;;;;4985643;28;20223;-86
2022/02/21 01:13:11;;;;;;;6.73;0.93;;;;;;;;;;4979311;28;20244;-85
2022/02/21 01:15:38;;;;;;;4.40;1.13;;;;;;;;;;4982169;28;20264;-86
2022/02/21 01:18:06;;;;;;;8.43;1.13;;;;;;;;;;4986187;28;20237;-85
2022/02/21 01:20:33;;;;;;;4.43;0.80;;;;;;;;;;4985726;28;20660;-85
2022/02/21 01:23:00;;;;;;;7.33;1.10;;;;;;;;;;4982468;28;20212;-86
2022/02/21 01:25:27;;;;;;;6.00;1.17;;;;;;;;;;4982448;28;20201;-85
2022/02/21 01:27:55;;;;;;;4.20;0.87;;;;;;;;;;4982799;28;20304;-85
2022/02/21 01:30:23;;;;;;;6.90;1.00;;;;;;;;;;4984133;28;20286;-86
2022/02/21 01:32:51;;;;;;;4.83;0.90;;;;;;;;;;4983487;28;20292;-85
2022/02/21 01:35:18;;;;;;;7.90;1.00;;;;;;;;;;4988419;28;20291;-87
2022/02/21 01:37:45;;;;;;;6.63;0.97;;;;;;;;;;4986077;28;20619;-87
2022/02/21 01:40:15;;;;;;;5.93;1.00;;;;;;;;;;4984387;28;20197;-85
2022/02/21 01:42:43;;;;;;;10.10;1.30;;;;;;;;;;4981970;28;20236;-84
2022/02/21 01:45:10;;;;;;;7.97;1.07;;;;;;;;;;4983195;28;20605;-85
2022/02/21 01:47:39;;;;;;;11.53;0.93;;;;;;;;;;4986962;28;20225;-84
2022/02/21 01:50:06;;;;;;;5.93;1.27;;;;;;;;;;4985759;28;20290;-87
2022/02/21 01:52:34;;;;;;;7.67;1.13;;;;;;;;;;4983750;28;20272;-87
2022/02/21 01:55:01;;;;;;;8.80;1.23;;;;;;;;;;4985506;28;20236;-87
2022/02/21 01:57:28;;;;;;;4.67;1.03;;;;;;;;;;4982964;28;20249;-87
2022/02/21 01:59:56;;;;;;;6.77;1.10;;;;;;;;;;4990582;28;20209;-87
2022/02/21 02:02:23;;;;;;;6.00;1.17;;;;;;;;;;4989703;28;20209;-86
2022/02/21 02:04:51;;;;;;;10.90;1.43;;;;;;;;;;4991229;28;20229;-86
2022/02/21 02:07:19;;;;;;;4.10;0.73;;;;;;;;;;4988735;28;20291;-86
2022/02/21 02:09:46;;;;;;;6.53;1.17;;;;;;;;;;4990972;28;20291;-86
2022/02/21 02:12:13;;;;;;;5.23;1.50;;;;;;;;;;4992428;28;20208;-86
2022/02/21 02:14:41;;;;;;;4.17;1.07;;;;;;;;;;4986286;28;20236;-87
2022/02/21 02:17:12;;;;;;;6.93;1.10;;;;;;;;;;4992749;28;20229;-85
2022/02/21 02:19:42;;;;;;;3.70;0.87;;;;;;;;;;5001547;28;20228;-85
2022/02/21 02:22:14;;;;;;;3.23;0.60;;;;;;;;;;4996600;28;20583;-83
2022/02/21 02:24:42;;;;;;;1.17;0.53;;;;;;;;;;4999167;28;20232;-85
2022/02/21 02:27:09;;;;;;;2.73;0.50;;;;;;;;;;5001942;28;20232;-85
2022/02/21 02:29:37;;;;;;;2.63;0.57;;;;;;;;;;4998098;28;20237;-85
2022/02/21 02:32:05;;;;;;;2.43;0.77;;;;;;;;;;4995952;28;20277;-84
2022/02/21 02:34:32;;;;;;;4.10;0.70;;;;;;;;;;4996842;28;20198;-87
2022/02/21 02:36:59;;;;;;;3.78;0.55;;;;;;;;;;4988527;28;20544;-85
2022/02/21 02:39:28;;;;;;;2.97;0.80;;;;;;;;;;4996153;28;20304;-86
2022/02/21 02:41:56;;;;;;;1.87;0.63;;;;;;;;;;4995787;28;20228;-85
2022/02/21 02:44:23;;;;;;;2.50;0.73;;;;;;;;;;4986521;28;20209;-87
2022/02/21 02:46:51;;;;;;;2.10;0.60;;;;;;;;;;4993950;28;20205;-87
2022/02/21 02:49:18;;;;;;;6.30;1.17;;;;;;;;;;4994170;28;20260;-87
2022/02/21 02:51:45;;;;;;;2.27;0.80;;;;;;;;;;4994256;28;20272;-86
2022/02/21 02:54:13;;;;;;;1.67;0.70;;;;;;;;;;4991093;28;20232;-86
2022/02/21 02:56:42;;;;;;;7.20;1.13;;;;;;;;;;4991931;28;20645;-86
2022/02/21 02:59:10;;;;;;;8.30;1.00;;;;;;;;;;4995433;28;20634;-87
2022/02/21 03:01:39;;;;;;;8.60;1.13;;;;;;;;;;4990596;28;20287;-85
2022/02/21 03:04:07;;;;;;;5.17;1.30;;;;;;;;;;4991380;28;20209;-86
2022/02/21 03:06:37;;;;;;;7.03;1.10;;;;;;;;;;4993885;28;20845;-86
2022/02/21 03:09:05;;;;;;;6.37;1.10;;;;;;;;;;4992507;28;20235;-84
2022/02/21 03:11:35;;;;;;;8.63;0.73;;;;;;;;;;4992892;28;20209;-87
2022/02/21 03:14:03;;;;;;;7.63;1.20;;;;;;;;;;4994216;28;20489;-87
2022/02/21 03:16:31;;;;;;;6.97;1.33;;;;;;;;;;4991249;28;20221;-86
2022/02/21 03:19:02;;;;;;;5.30;1.50;;;;;;;;;;4988662;28;20221;-87
2022/02/21 03:21:29;;;;;;;4.80;0.80;;;;;;;;;;4987140;28;20299;-86
2022/02/21 03:23:56;;;;;;;5.70;0.97;;;;;;;;;;4989251;28;20365;-86
2022/02/21 03:29:29;;;;;;;8.37;1.40;;;;;;;;;;5002877;23;20271;-77
2022/02/21 03:31:56;;;;;;;4.63;0.63;;;;;;;;;;4998459;28;20235;-76
2022/02/21 03:34:23;;;;;;;3.60;1.13;;;;;;;;;;4997592;28;20211;-77
2022/02/21 03:36:50;;;;;;;7.07;1.00;;;;;;;;;;4981423;28;21275;-77
2022/02/21 03:39:17;;;;;;;6.63;1.00;;;;;;;;;;4981553;28;20656;-77
2022/02/21 03:41:44;;;;;;;7.57;0.93;;;;;;;;;;4981971;28;20209;-77
2022/02/21 03:44:14;;;;;;;9.63;1.00;;;;;;;;;;4976754;28;20202;-76
2022/02/21 03:46:43;;;;;;;8.37;1.10;;;;;;;;;;4978314;28;20232;-76
2022/02/21 03:49:11;;;;;;;3.40;0.80;;;;;;;;;;4979017;28;20205;-77
2022/02/21 03:51:39;;;;;;;5.13;1.37;;;;;;;;;;4982582;28;20205;-77
2022/02/21 03:54:06;;;;;;;4.77;0.83;;;;;;;;;;4981794;28;20233;-76
2022/02/21 03:56:33;;;;;;;8.37;0.97;;;;;;;;;;4983639;28;20239;-77
2022/02/21 03:59:00;;;;;;;6.30;0.63;;;;;;;;;;4981028;28;20579;-77
2022/02/21 04:01:28;;;;;;;8.23;0.60;;;;;;;;;;4980913;28;20215;-77
2022/02/21 04:03:56;;;;;;;4.13;1.20;;;;;;;;;;4980706;28;20637;-78
2022/02/21 04:06:23;;;;;;;5.78;0.88;;;;;;;;;;4977922;28;20477;-76
2022/02/21 04:08:50;;;;;;;4.67;1.00;;;;;;;;;;4978622;28;20205;-77
2022/02/21 04:11:18;;;;;;;4.70;0.67;;;;;;;;;;4976957;28;20585;-77
2022/02/21 04:13:45;;;;;;;7.00;0.80;;;;;;;;;;4978616;28;20683;-76
2022/02/21 04:16:12;;;;;;;2.60;0.83;;;;;;;;;;4975911;28;20248;-76
2022/02/21 04:18:39;;;;;;;3.47;0.50;;;;;;;;;;4982309;28;20215;-77
2022/02/21 04:21:08;;;;;;;4.37;0.67;;;;;;;;;;4979638;28;20299;-77
2022/02/21 04:23:35;;;;;;;4.40;1.03;;;;;;;;;;4984437;28;20533;-77
2022/02/21 04:26:02;;;;;;;3.57;1.20;;;;;;;;;;4981537;28;20700;-78
2022/02/21 04:28:30;;;;;;;1.97;0.63;;;;;;;;;;4981596;28;20300;-77
2022/02/21 04:30:57;;;;;;;4.63;0.93;;;;;;;;;;4979775;28;20201;-77
2022/02/21 04:33:24;;;;;;;6.73;0.80;;;;;;;;;;4975421;28;20209;-77
2022/02/21 04:35:52;;;;;;;2.57;0.70;;;;;;;;;;4977762;28;20722;-77
2022/02/21 04:38:20;;;;;;;5.60;0.83;;;;;;;;;;4979189;28;20766;-77
2022/02/21 04:40:48;;;;;;;4.67;0.80;;;;;;;;;;4979514;28;20570;-77
2022/02/21 04:43:15;;;;;;;4.93;0.60;;;;;;;;;;4978234;28;20248;-76
2022/02/21 04:45:42;;;;;;;4.07;1.10;;;;;;;;;;4976676;28;20201;-78
2022/02/21 04:48:09;;;;;;;4.00;0.77;;;;;;;;;;4978335;28;20219;-76
2022/02/21 04:50:37;;;;;;;3.63;0.67;;;;;;;;;;4975653;28;20210;-77
2022/02/21 04:53:04;;;;;;;6.67;1.23;;;;;;;;;;4974616;28;20233;-77
2022/02/21 04:55:32;;;;;;;3.50;0.60;;;;;;;;;;4976272;28;20285;-77
2022/02/21 04:57:59;;;;;;;5.20;1.10;;;;;;;;;;4980674;28;20221;-78
2022/02/21 05:00:27;;;;;;;6.77;1.10;;;;;;;;;;4975774;28;20204;-77
2022/02/21 05:02:54;;;;;;;6.03;0.87;;;;;;;;;;4976723;28;20264;-75
2022/02/21 05:05:21;;;;;;;5.03;0.80;;;;;;;;;;4979854;28;20201;-76
2022/02/21 05:07:48;;;;;;;4.23;0.73;;;;;;;;;;4975964;28;20221;-77
2022/02/21 05:10:16;;;;;;;6.60;1.03;;;;;;;;;;4981610;28;20300;-77
2022/02/21 05:12:44;;;;;;;7.03;1.00;;;;;;;;;;4982496;28;20215;-78
2022/02/21 05:15:12;;;;;;;7.20;1.00;;;;;;;;;;4982816;28;20232;-77
2022/02/21 05:17:40;;;;;;;7.30;1.00;;;;;;;;;;4981129;28;20242;-77
2022/02/21 05:20:08;;;;;;;4.30;1.20;;;;;;;;;;4977609;28;20701;-77
2022/02/21 05:22:35;;;;;;;8.33;1.43;;;;;;;;;;4976008;28;20294;-77
2022/02/21 05:25:03;;;;;;;5.90;1.20;;;;;;;;;;4977853;28;20296;-76
2022/02/21 05:27:34;;;;;;;5.10;0.80;;;;;;;;;;4977888;28;20225;-78
2022/02/21 05:30:02;;;;;;;4.07;1.30;;;;;;;;;;4977549;28;20209;-75
2022/02/21 05:32:29;;;;;;;4.13;0.90;;;;;;;;;;4979129;28;20204;-77
2022/02/21 05:34:56;;;;;;;8.13;1.30;;;;;;;;;;4978049;28;20252;-77
2022/02/21 05:37:24;;;;;;;7.27;1.13;;;;;;;;;;4983265;28;20239;-78
2022/02/21 05:39:51;;;;;;;4.83;0.80;;;;;;;;;;4969669;28;20212;-78
2022/02/21 05:42:18;;;;;;;4.90;0.70;;;;;;;;;;4971617;28;20673;-76
2022/02/21 05:44:45;;;;;;;4.63;0.90;;;;;;;;;;4974012;28;20220;-78
2022/02/21 05:47:14;;;;;;;4.17;1.13;;;;;;;;;;4979696;28;20220;-76
2022/02/21 05:49:41;;;;;;;8.53;1.47;;;;;;;;;;4978897;28;20208;-76
2022/02/21 05:52:08;;;;;;;7.43;1.67;;;;;;;;;;4978229;28;20244;-78
2022/02/21 05:54:36;;;;;;;13.87;1.53;;;;;;;;;;4981037;28;20247;-79
2022/02/21 05:57:03;;;;;;;11.47;1.30;;;;;;;;;;4974407;28;20225;-76
2022/02/21 05:59:32;;;;;;;6.77;1.20;;;;;;;;;;4975430;28;20290;-77
2022/02/21 06:01:59;;;;;;;7.07;2.20;;;;;;;;;;4974722;28;20201;-78
2022/02/21 06:04:28;;;;;;;4.20;0.93;;;;;;;;;;4974055;28;20207;-77
2022/02/21 06:06:55;;;;;;;7.47;1.23;;;;;;;;;;4974096;28;20229;-77
2022/02/21 06:09:22;;;;;;;5.20;1.40;;;;;;;;;;4970753;28;20221;-76
2022/02/21 06:11:49;;;;;;;10.37;1.43;;;;;;;;;;4973557;28;20920;-76
2022/02/21 06:14:17;;;;;;;10.87;2.07;;;;;;;;;;4979608;28;20204;-75
2022/02/21 06:16:44;;;;;;;5.87;1.33;;;;;;;;;;4978113;28;20255;-75
2022/02/21 06:19:12;;;;;;;8.53;1.87;;;;;;;;;;4976551;28;20534;-76
2022/02/21 06:21:41;;;;;;;7.73;1.50;;;;;;;;;;4981483;28;20208;-76
2022/02/21 06:24:08;;;;;;;9.43;1.37;;;;;;;;;;4979809;28;20210;-75
2022/02/21 06:26:35;;;;;;;8.07;1.60;;;;;;;;;;4983156;28;20232;-75
2022/02/21 06:29:02;;;;;;;21.33;1.83;;;;;;;;;;4978650;28;20592;-76
2022/02/21 06:31:31;;;;;;;3.17;0.80;;;;;;;;;;4981568;28;20209;-77
2022/02/21 06:33:58;;;;;;;6.43;1.27;;;;;;;;;;4983534;28;20604;-76
2022/02/21 06:36:25;;;;;;;9.20;1.50;;;;;;;;;;4978651;28;20811;-76
2022/02/21 06:38:53;;;;;;;6.40;1.30;;;;;;;;;;4978705;28;20255;-74
2022/02/21 06:41:21;;;;;;;16.47;1.30;;;;;;;;;;4979367;28;20202;-75
2022/02/21 06:43:48;;;;;;;12.13;1.37;;;;;;;;;;4979424;28;20210;-75
2022/02/21 06:46:15;;;;;;;7.50;1.03;;;;;;;;;;4980271;28;20221;-76
2022/02/21 06:48:42;;;;;;;6.80;1.27;;;;;;;;;;4983167;28;20207;-77
2022/02/21 06:51:09;;;;;;;9.87;2.00;;;;;;;;;;4977663;28;20640;-75
2022/02/21 06:53:37;;;;;;;5.27;1.10;;;;;;;;;;4982451;28;20201;-76
2022/02/21 06:56:05;;;;;;;9.17;1.63;;;;;;;;;;4979872;28;20316;-77
2022/02/21 06:58:32;;;;;;;10.60;1.47;;;;;;;;;;4979798;28;20552;-76
2022/02/21 07:01:00;;;;;;;7.50;1.30;;;;;;;;;;4984011;28;20219;-75
2022/02/21 07:03:27;;;;;;;13.67;1.80;;;;;;;;;;4982647;28;20201;-76
2022/02/21 07:05:54;;;;;;;15.17;1.90;;;;;;;;;;4981748;28;20244;-76
2022/02/21 07:08:21;;;;;;;10.53;1.83;;;;;;;;;;4981020;28;20214;-75
2022/02/21 07:10:48;;;;;;;12.67;2.10;;;;;;;;;;4981614;28;20296;-77
2022/02/21 07:13:18;;;;;;;9.57;1.87;;;;;;;;;;4979621;28;20209;-77
2022/02/21 07:15:46;;;;;;;10.33;1.27;;;;;;;;;;4978471;28;20205;-76
2022/02/21 07:18:13;;;;;;;7.90;1.03;;;;;;;;;;4977869;28;20229;-75
2022/02/21 07:20:40;;;;;;;8.07;1.30;;;;;;;;;;4982702;28;20240;-77
2022/02/21 07:23:07;;;;;;;9.33;1.50;;;;;;;;;;4975581;28;20626;-77
2022/02/21 07:25:34;;;;;;;12.40;1.60;;;;;;;;;;4980587;28;20197;-77
2022/02/21 07:28:01;;;;;;;16.83;1.83;;;;;;;;;;4985626;28;20209;-76
2022/02/21 07:30:30;;;;;;;12.70;1.90;;;;;;;;;;4975992;28;20297;-76
2022/02/21 07:32:58;;;;;;;4.63;1.33;;;;;;;;;;4977094;28;20206;-76
2022/02/21 07:35:25;;;;;;;18.10;1.80;;;;;;;;;;4979080;28;20296;-76
2022/02/21 07:37:53;;;;;;;5.37;1.17;;;;;;;;;;4981798;28;20237;-76
2022/02/21 07:40:20;;;;;;;14.47;1.87;;;;;;;;;;4986341;28;20236;-76
2022/02/21 07:42:49;;;;;;;8.17;1.60;;;;;;;;;;4977059;28;20206;-76
2022/02/21 07:45:19;;;;;;;10.10;1.80;;;;;;;;;;4976547;28;20211;-76
2022/02/21 07:47:48;;;;;;;14.13;1.53;;;;;;;;;;4976164;28;20747;-75
2022/02/21 07:50:16;;;;;;;7.27;1.30;;;;;;;;;;4975335;28;20385;-77
2022/02/21 07:52:43;;;;;;;9.80;1.37;;;;;;;;;;4973505;28;20223;-77
2022/02/21 07:55:11;;;;;;;10.50;2.13;;;;;;;;;;4980389;28;20288;-76
2022/02/21 07:57:40;;;;;;;10.00;1.53;;;;;;;;;;4974272;28;20320;-74
2022/02/21 08:00:09;;;;;;;14.97;2.00;;;;;;;;;;4975229;28;20663;-75
2022/02/21 08:02:36;;;;;;;11.00;1.47;;;;;;;;;;4981286;28;20209;-76
2022/02/21 08:05:05;;;;;;;9.57;1.10;;;;;;;;;;4977456;28;20229;-75
2022/02/21 08:07:32;;;;;;;7.87;1.60;;;;;;;;;;4975813;28;20225;-74
2022/02/21 08:10:00;;;;;;;8.00;1.60;;;;;;;;;;4977115;28;20647;-77
2022/02/21 08:12:27;;;;;;;11.60;1.93;;;;;;;;;;4976421;28;20759;-76
2022/02/21 08:14:54;;;;;;;8.80;1.60;;;;;;;;;;4978384;28;20578;-73
2022/02/21 08:17:22;;;;;;;11.47;1.60;;;;;;;;;;4980940;28;20315;-76
2022/02/21 08:19:49;;;;;;;15.30;1.80;;;;;;;;;;4973378;28;20543;-75
2022/02/21 08:22:17;;;;;;;8.87;1.30;;;;;;;;;;4978624;28;20605;-76
2022/02/21 08:24:44;;;;;;;8.40;1.80;;;;;;;;;;4979468;28;20205;-76
2022/02/21 08:27:12;;;;;;;11.73;1.90;;;;;;;;;;4978449;28;20221;-75
2022/02/21 08:29:39;;;;;;;9.10;1.77;;;;;;;;;;4978419;28;20200;-74
2022/02/21 08:32:07;;;;;;;7.53;1.80;;;;;;;;;;4981204;28;20678;-78
2022/02/21 08:34:34;;;;;;;5.53;1.23;;;;;;;;;;4978784;28;20206;-76
2022/02/21 08:37:01;;;;;;;8.93;1.60;;;;;;;;;;4975653;28;20301;-77
2022/02/21 08:39:30;;;;;;;8.57;1.50;;;;;;;;;;4978879;28;20202;-75
2022/02/21 08:41:57;;;;;;;7.10;1.10;;;;;;;;;;4978496;28;20221;-76
2022/02/21 08:44:25;;;;;;;9.87;2.13;;;;;;;;;;4978499;28;20211;-78
2022/02/21 08:46:52;;;;;;;7.13;1.70;;;;;;;;;;4977349;28;20227;-76
2022/02/21 08:49:20;;;;;;;10.47;1.00;;;;;;;;;;4976391;28;20201;-76
2022/02/21 08:51:47;;;;;;;7.03;1.53;;;;;;;;;;4975121;28;20268;-77
2022/02/21 08:54:15;;;;;;;5.53;1.20;;;;;;;;;;4976659;28;20759;-78
2022/02/21 08:56:43;;;;;;;6.57;1.30;;;;;;;;;;4975850;28;20228;-75
2022/02/21 08:59:11;;;;;;;8.47;1.00;;;;;;;;;;4977293;28;20232;-76
2022/02/21 09:01:42;;;;;;;10.00;1.30;;;;;;;;;;4980297;28;20205;-76
2022/02/21 09:04:10;;;;;;;5.93;1.10;;;;;;;;;;4977201;28;20742;-76
2022/02/21 09:06:37;;;;;;;6.53;1.70;;;;;;;;;;4973355;28;20687;-75
2022/02/21 09:09:04;;;;;;;7.33;1.50;;;;;;;;;;4974159;28;20198;-75
2022/02/21 09:11:31;;;;;;;10.43;1.50;;;;;;;;;;4976934;28;20563;-76
2022/02/21 09:14:00;;;;;;;12.70;1.90;;;;;;;;;;4977761;28;20210;-74
2022/02/21 09:16:27;;;;;;;9.43;1.03;;;;;;;;;;4970943;28;20236;-76
2022/02/21 09:18:54;;;;;;;7.50;1.80;;;;;;;;;;4975571;28;20227;-76
2022/02/21 09:21:21;;;;;;;8.27;1.47;;;;;;;;;;4973352;28;20201;-76
2022/02/21 09:23:48;;;;;;;10.93;2.10;;;;;;;;;;4975636;28;20275;-75
2022/02/21 09:26:16;;;;;;;7.60;1.73;;;;;;;;;;4974884;28;20225;-75
2022/02/21 09:28:43;;;;;;;10.13;2.50;;;;;;;;;;4975811;28;20299;-78
2022/02/21 09:31:11;;;;;;;7.13;2.10;;;;;;;;;;4973509;28;20300;-78
2022/02/21 09:33:40;;;;;;;9.83;3.23;;;;;;;;;;4974248;28;20205;-77
2022/02/21 09:36:07;;;;;;;8.43;2.20;;;;;;;;;;4972991;28;20249;-77
2022/02/21 09:38:35;;;;;;;17.20;7.57;;;;;;;;;;4973177;28;20213;-77
2022/02/21 09:41:03;;;;;;;10.50;1.60;;;;;;;;;;4976718;28;20201;-79
2022/02/21 09:43:30;;;;;;;10.07;4.10;;;;;;;;;;4977874;28;20289;-78
2022/02/21 09:45:58;;;;;;;25.27;7.50;;;;;;;;;;4973297;28;20746;-82
2022/02/21 09:48:28;;;;;;;25.40;9.57;;;;;;;;;;4976637;28;20204;-80
2022/02/21 09:50:59;;;;;;;7.13;1.73;;;;;;;;;;4975057;28;20207;-77
2022/02/21 09:53:27;;;;;;;15.47;3.07;;;;;;;;;;4991581;23;20240;-77
2022/02/21 09:55:55;;;;;;;25.20;9.93;;;;;;;;;;4984346;28;20304;-77
2022/02/21 09:58:22;;;;;;;7.17;3.03;;;;;;;;;;4979576;28;20214;-76
2022/02/21 10:00:50;;;;;;;8.37;2.13;;;;;;;;;;4980525;28;20248;-76
2022/02/21 10:03:19;;;;;;;6.00;1.63;;;;;;;;;;4978657;28;20205;-76
2022/02/21 10:05:50;;;;;;;22.10;6.83;;;;;;;;;;4982248;28;20579;-76
2022/02/21 10:08:25;;;;;;;9.00;3.17;;;;;;;;;;4980765;28;20293;-76
2022/02/21 10:10:57;;;;;;;10.20;3.03;;;;;;;;;;4977849;28;20291;-77
2022/02/21 10:13:24;;;;;;;14.93;2.30;;;;;;;;;;4985873;28;20205;-76
2022/02/21 10:15:51;;;;;;;9.60;2.63;;;;;;;;;;4983294;28;20348;-76
2022/02/21 10:18:19;;;;;;;22.10;8.73;;;;;;;;;;4984832;28;20217;-77
2022/02/21 10:20:55;;;;;;;6.67;2.37;;;;;;;;;;4984546;28;20237;-77
2022/02/21 10:23:22;;;;;;;9.43;3.37;;;;;;;;;;4987153;28;20377;-77
2022/02/21 10:25:56;;;;;;;10.00;2.63;;;;;;;;;;4987707;28;20285;-77
2022/02/21 10:28:29;;;;;;;9.93;1.80;;;;;;;;;;4988778;28;20228;-77
2022/02/21 10:31:09;;;;;;;8.30;2.70;;;;;;;;;;4989950;28;20223;-78
2022/02/21 10:33:36;;;;;;;11.17;3.33;;;;;;;;;;4981349;28;20207;-77
2022/02/21 10:36:05;;;;;;;6.63;1.20;;;;;;;;;;4988315;28;20248;-78
2022/02/21 10:38:41;;;;;;;7.47;1.60;;;;;;;;;;4984230;28;22131;-77
2022/02/21 10:41:08;;;;;;;15.13;1.57;;;;;;;;;;4980483;28;20205;-78
2022/02/21 10:43:35;;;;;;;7.20;1.93;;;;;;;;;;4976574;28;20201;-76
2022/02/21 10:46:13;;;;;;;9.57;1.77;;;;;;;;;;4986600;28;20241;-78
2022/02/21 10:48:43;;;;;;;3.30;1.10;;;;;;;;;;4989822;28;20270;-78
2022/02/21 10:51:12;;;;;;;8.90;2.03;;;;;;;;;;4985706;28;20213;-78
2022/02/21 10:53:40;;;;;;;6.33;1.27;;;;;;;;;;4982545;28;20216;-77
2022/02/21 10:56:08;;;;;;;9.73;1.57;;;;;;;;;;4977037;28;20715;-77
2022/02/21 10:58:35;;;;;;;5.13;1.20;;;;;;;;;;4977180;28;20220;-78
2022/02/21 11:01:03;;;;;;;3.80;1.00;;;;;;;;;;4982898;28;20229;-78
2022/02/21 11:03:30;;;;;;;6.80;0.97;;;;;;;;;;4977756;28;20602;-78
2022/02/21 11:05:59;;;;;;;2.07;0.63;;;;;;;;;;4979609;28;20315;-75
2022/02/21 11:08:28;;;;;;;4.47;1.07;;;;;;;;;;4980830;28;20220;-75
2022/02/21 11:10:58;;;;;;;3.33;1.00;;;;;;;;;;4981674;28;20210;-77
2022/02/21 11:13:26;;;;;;;5.53;1.13;;;;;;;;;;4980796;28;20205;-75
2022/02/21 11:15:54;;;;;;;6.67;0.93;;;;;;;;;;4981497;28;20225;-76
2022/02/21 11:18:22;;;;;;;7.70;1.37;;;;;;;;;;4981726;28;20324;-78
2022/02/21 11:20:49;;;;;;;3.27;0.70;;;;;;;;;;4981007;28;20256;-76
2022/02/21 11:23:16;;;;;;;9.00;1.53;;;;;;;;;;4982593;28;20690;-76
2022/02/21 11:25:47;;;;;;;12.60;1.70;;;;;;;;;;4982216;28;20205;-76
2022/02/21 11:28:19;;;;;;;5.00;1.10;;;;;;;;;;4982928;28;20208;-75
2022/02/21 11:30:47;;;;;;;11.33;1.30;;;;;;;;;;4979136;28;20206;-77
2022/02/21 11:33:15;;;;;;;6.20;1.53;;;;;;;;;;4982191;28;20211;-76
2022/02/21 11:36:04;;;;;;;9.60;1.20;;;;;;;;;;4981245;28;20213;-75
2022/02/21 11:38:33;;;;;;;6.00;1.07;;;;;;;;;;4980440;28;20665;-74
2022/02/21 11:41:03;;;;;;;7.73;1.50;;;;;;;;;;4979385;28;20216;-77
2022/02/21 11:43:31;;;;;;;6.63;1.20;;;;;;;;;;4968862;28;20300;-77
2022/02/21 11:45:59;;;;;;;6.37;1.30;;;;;;;;;;4978639;28;20255;-76
2022/02/21 11:48:26;;;;;;;4.63;0.90;;;;;;;;;;4979748;28;20228;-75
2022/02/21 11:51:22;;;;;;;13.93;1.40;;;;;;;;;;4982208;28;20639;-76
2022/02/21 11:53:50;;;;;;;3.23;1.00;;;;;;;;;;4981215;28;20214;-76
2022/02/21 11:56:18;;;;;;;7.60;1.30;;;;;;;;;;4979596;28;20816;-76
2022/02/21 11:58:47;;;;;;;6.40;1.30;;;;;;;;;;4977423;28;20256;-76
2022/02/21 12:01:19;;;;;;;7.47;1.17;;;;;;;;;;4976280;28;20567;-78
2022/02/21 12:04:06;;;;;;;9.67;1.30;;;;;;;;;;4978229;28;20237;-77
2022/02/21 12:06:33;;;;;;;7.50;1.40;;;;;;;;;;4980473;28;20275;-78
2022/02/21 12:09:06;;;;;;;8.53;1.40;;;;;;;;;;4980766;28;20631;-77
2022/02/21 12:11:35;;;;;;;8.73;1.60;;;;;;;;;;4977290;28;20198;-78
2022/02/21 12:14:16;;;;;;;10.13;2.00;;;;;;;;;;4979428;28;20212;-78
2022/02/21 12:17:16;;;;;;;14.50;2.20;;;;;;;;;;4979076;28;20284;-77
2022/02/21 12:19:43;;;;;;;6.63;1.30;;;;;;;;;;4919180;28;20732;-75
2022/02/21 12:22:15;;;;;;;5.73;1.30;;;;;;;;;;4971141;28;21371;-76
2022/02/21 12:25:01;;;;;;;5.37;1.10;;;;;;;;;;4975914;28;20209;-76
2022/02/21 12:27:29;;;;;;;4.10;1.13;;;;;;;;;;4976602;28;20228;-77
2022/02/21 12:29:56;;;;;;;11.87;2.57;;;;;;;;;;4977245;28;20292;-77
2022/02/21 12:32:27;;;;;;;9.90;2.87;;;;;;;;;;4963562;28;20310;-77
2022/02/21 12:34:54;;;;;;;9.67;2.70;;;;;;;;;;4970381;28;20204;-77
2022/02/21 12:37:21;;;;;;;11.07;2.53;;;;;;;;;;4971263;28;20233;-77
2022/02/21 12:39:49;;;;;;;10.00;1.80;;;;;;;;;;4975619;28;20316;-77
2022/02/21 12:42:19;;;;;;;9.00;2.17;;;;;;;;;;4970692;28;20237;-76
2022/02/21 12:44:48;;;;;;;8.93;2.27;;;;;;;;;;4972576;28;20749;-77
2022/02/21 12:47:15;;;;;;;15.33;2.07;;;;;;;;;;4973541;28;20315;-77
2022/02/21 12:49:50;;;;;;;12.03;3.30;;;;;;;;;;4972961;28;20201;-77
2022/02/21 12:52:17;;;;;;;9.53;3.40;;;;;;;;;;4970609;28;20328;-77
2022/02/21 12:54:55;;;;;;;12.53;3.40;;;;;;;;;;4968852;28;20201;-77
2022/02/21 12:57:23;;;;;;;12.07;4.50;;;;;;;;;;4975745;28;20228;-77
2022/02/21 12:59:52;;;;;;;3.83;1.30;;;;;;;;;;4971440;28;20236;-77
2022/02/21 13:02:20;;;;;;;8.27;1.73;;;;;;;;;;4977141;28;20200;-77
2022/02/21 13:04:47;;;;;;;7.27;1.57;;;;;;;;;;4975810;28;20209;-77
2022/02/21 13:07:15;;;;;;;5.33;2.03;;;;;;;;;;4972355;28;20232;-77
2022/02/21 13:09:43;;;;;;;4.80;1.60;;;;;;;;;;4974432;28;20213;-78
2022/02/21 13:12:18;;;;;;;8.93;2.87;;;;;;;;;;4972632;28;20201;-77
2022/02/21 13:14:45;;;;;;;18.03;10.50;;;;;;;;;;4972676;28;20209;-77
2022/02/21 13:17:15;;;;;;;6.33;2.63;;;;;;;;;;4970743;28;20323;-77
2022/02/21 13:19:43;;;;;;;5.77;2.63;;;;;;;;;;4974243;28;20232;-77
2022/02/21 13:22:11;;;;;;;3.00;1.43;;;;;;;;;;4978758;28;20624;-76
2022/02/21 13:24:40;;;;;;;3.43;0.90;;;;;;;;;;4977038;28;20260;-77
2022/02/21 13:27:08;;;;;;;4.33;1.20;;;;;;;;;;4972833;28;20229;-77
2022/02/21 13:29:36;;;;;;;5.47;1.43;;;;;;;;;;4975383;28;20197;-77
2022/02/21 13:32:04;;;;;;;2.03;0.80;;;;;;;;;;4976111;28;20226;-78
2022/02/21 13:34:47;;;;;;;2.20;0.87;;;;;;;;;;4977251;28;20218;-77
2022/02/21 13:37:15;;;;;;;1.50;0.70;;;;;;;;;;4973091;28;20252;-77
2022/02/21 13:39:43;;;;;;;0.80;0.60;;;;;;;;;;4973804;28;20710;-76
2022/02/21 13:42:20;;;;;;;1.67;1.03;;;;;;;;;;4974460;28;20209;-77
2022/02/21 13:44:48;;;;;;;2.40;1.50;;;;;;;;;;4975345;28;20215;-77
2022/02/21 13:47:28;;;;;;;1.87;1.20;;;;;;;;;;4979288;28;20309;-76
2022/02/21 13:49:57;;;;;;;0.93;0.60;;;;;;;;;;4969633;28;20201;-77
2022/02/21 13:52:24;;;;;;;1.00;0.60;;;;;;;;;;4971957;28;20295;-76
2022/02/21 13:54:51;;;;;;;1.83;0.60;;;;;;;;;;4957932;28;20202;-77
2022/02/21 13:57:19;;;;;;;1.50;0.37;;;;;;;;;;4962263;28;20320;-76
2022/02/21 13:59:47;;;;;;;0.60;0.40;;;;;;;;;;4969078;28;20216;-76
2022/02/21 14:02:21;;;;;;;1.30;0.30;;;;;;;;;;4969900;28;20205;-76
2022/02/21 14:04:48;;;;;;;2.33;0.50;;;;;;;;;;4975542;28;20296;-76
2022/02/21 14:07:17;;;;;;;0.67;0.50;;;;;;;;;;4969192;28;20230;-77
2022/02/21 14:09:44;;;;;;;0.73;0.30;;;;;;;;;;4971437;28;20208;-76
2022/02/21 14:12:15;;;;;;;1.40;0.40;;;;;;;;;;4974242;28;20197;-76
2022/02/21 14:14:42;;;;;;;0.93;0.50;;;;;;;;;;4978656;28;20205;-78
2022/02/21 14:17:09;;;;;;;1.90;0.50;;;;;;;;;;4976447;28;20224;-79
2022/02/21 14:19:36;;;;;;;3.73;0.77;;;;;;;;;;4982054;28;20288;-79
2022/02/21 14:22:04;;;;;;;2.30;1.30;;;;;;;;;;4977990;28;20229;-77
2022/02/21 14:24:32;;;;;;;3.77;1.10;;;;;;;;;;4982532;28;20197;-77
2022/02/21 14:27:00;;;;;;;0.93;0.53;;;;;;;;;;4978389;28;20311;-78
2022/02/21 14:29:27;;;;;;;4.63;0.70;;;;;;;;;;4982028;28;20711;-76
2022/02/21 14:31:54;;;;;;;2.77;0.73;;;;;;;;;;4978027;28;20631;-77
2022/02/21 14:34:21;;;;;;;2.67;0.50;;;;;;;;;;4979981;28;20209;-82
2022/02/21 14:36:48;;;;;;;2.67;0.50;;;;;;;;;;4968935;28;20228;-79
2022/02/21 14:39:15;;;;;;;0.50;0.30;;;;;;;;;;4957326;28;20225;-78
2022/02/21 14:41:44;;;;;;;1.63;1.10;;;;;;;;;;4964564;28;20206;-79
2022/02/21 14:44:11;;;;;;;4.50;2.23;;;;;;;;;;4963919;28;20441;-75
2022/02/21 14:46:38;;;;;;;9.43;5.37;;;;;;;;;;4966482;28;20256;-76
2022/02/21 14:49:05;;;;;;;13.83;7.97;;;;;;;;;;4964546;28;20683;-75
2022/02/21 14:51:33;;;;;;;6.63;3.30;;;;;;;;;;4959389;28;20575;-75